createdAt,value
2022-12-23T09:39:30.535Z,4.63
2022-12-23T09:42:32.042Z,4.70
2022-12-23T09:45:41.987Z,3.13
2022-12-23T09:48:19.115Z,3.83
2022-12-23T09:50:46.694Z,2.58
2022-12-23T09:53:20.518Z,2.47
2022-12-23T09:56:04.597Z,2.72
2022-12-23T09:59:04.762Z,2.53
2022-12-23T10:01:54.621Z,2.17
2022-12-23T10:05:02.893Z,2.00
2022-12-23T10:07:38.781Z,1.52
2022-12-23T10:10:20.374Z,2.55
2022-12-23T10:12:52.866Z,2.38
2022-12-23T10:15:25.863Z,2.72
2022-12-23T10:18:00.910Z,2.30
2022-12-23T10:20:55.846Z,1.70
2022-12-23T10:23:38.310Z,1.70
2022-12-23T10:26:19.806Z,1.52
2022-12-23T10:28:47.337Z,1.40
2022-12-23T10:31:40.290Z,1.10
2022-12-23T10:35:05.983Z,1.40
2022-12-23T10:38:29.410Z,1.60
2022-12-23T10:41:28.464Z,1.50
2022-12-23T10:44:44.037Z,1.02
2022-12-23T10:47:24.028Z,1.42
2022-12-23T10:49:53.897Z,1.65
2022-12-23T10:52:32.266Z,1.52
2022-12-23T10:54:59.155Z,1.23
2022-12-23T10:57:26.292Z,1.60
2022-12-23T10:59:53.243Z,1.20
2022-12-23T11:02:49.006Z,1.30
2022-12-23T11:05:30.367Z,1.60
2022-12-23T11:07:58.539Z,1.33
2022-12-23T11:10:33.053Z,1.40
2022-12-23T11:13:01.346Z,1.67
2022-12-23T11:15:37.759Z,1.80
2022-12-23T11:18:19.253Z,1.67
2022-12-23T11:21:04.512Z,1.67
2022-12-23T11:23:36.775Z,1.70
2022-12-23T11:26:11.248Z,1.38
2022-12-23T11:29:01.717Z,1.30
2022-12-23T11:31:35.498Z,1.67
2022-12-23T11:36:35.341Z,1.30
2022-12-23T11:39:14.265Z,1.30
2022-12-23T11:41:49.723Z,1.15
2022-12-23T11:44:30.984Z,1.40
2022-12-23T11:46:58.706Z,1.65
2022-12-23T11:49:31.812Z,2.28
2022-12-23T11:52:16.876Z,1.40
2022-12-23T11:54:54.712Z,1.00
2022-12-23T11:57:33.710Z,1.33
2022-12-23T12:00:06.197Z,1.40
2022-12-23T12:02:44.291Z,1.42
2022-12-23T12:05:30.480Z,2.10
2022-12-23T12:08:03.359Z,1.38
2022-12-23T12:10:37.359Z,1.23
2022-12-23T12:13:20.253Z,1.20
2022-12-23T12:16:30.142Z,1.35
2022-12-23T12:19:36.631Z,1.30
2022-12-23T12:22:13.884Z,1.40
2022-12-23T12:24:52.521Z,1.20
2022-12-23T12:27:31.552Z,1.20
2022-12-23T12:30:08.438Z,1.50
2022-12-23T12:32:57.908Z,1.10
2022-12-23T12:35:42.202Z,1.10
2022-12-23T12:38:17.899Z,1.65
2022-12-23T12:40:54.777Z,1.38
2022-12-23T12:43:30.897Z,0.90
2022-12-23T12:46:19.842Z,1.30
2022-12-23T12:49:43.034Z,1.30
2022-12-23T12:52:15.936Z,1.45
2022-12-23T12:55:19.264Z,1.17
2022-12-23T12:57:46.383Z,1.30
2022-12-23T13:00:21.094Z,1.48
2022-12-23T13:03:36.644Z,1.27
2022-12-23T13:06:28.024Z,1.52
2022-12-23T13:09:16.640Z,1.63
2022-12-23T13:12:01.786Z,1.50
2022-12-23T13:14:41.243Z,2.50
2022-12-23T13:17:32.159Z,2.60
2022-12-23T13:20:20.107Z,1.80
2022-12-23T13:22:52.338Z,1.50
2022-12-23T13:25:46.144Z,1.63
2022-12-23T13:28:38.839Z,1.50
2022-12-23T13:31:30.919Z,1.63
2022-12-23T13:34:23.899Z,1.60
2022-12-23T13:37:39.303Z,1.95
2022-12-23T13:40:39.479Z,2.25
2022-12-23T13:43:35.798Z,1.88
2022-12-23T13:46:19.952Z,2.28
2022-12-23T13:49:14.684Z,2.60
2022-12-23T13:52:22.933Z,3.30
2022-12-23T13:55:18.015Z,2.28
2022-12-23T13:57:53.944Z,1.87
2022-12-23T14:00:27.710Z,2.65
2022-12-23T14:03:00.894Z,2.40
2022-12-23T14:05:41.524Z,2.13
2022-12-23T14:08:34.873Z,2.67
2022-12-23T14:11:32.032Z,1.92
2022-12-23T14:14:04.231Z,1.75
2022-12-23T14:16:55.184Z,2.10
2022-12-23T14:19:43.640Z,1.90
2022-12-23T14:22:35.356Z,2.42
2022-12-23T14:25:57.726Z,2.78
2022-12-23T14:28:43.638Z,2.30
2022-12-23T14:31:55.203Z,2.60
2022-12-23T14:34:22.853Z,2.10
2022-12-23T14:37:35.029Z,2.28
2022-12-23T14:40:39.102Z,3.10
2022-12-23T14:43:30.631Z,3.33
2022-12-23T14:46:25.272Z,3.72
2022-12-23T14:49:09.692Z,2.92
2022-12-23T14:51:41.019Z,2.30
2022-12-23T14:54:15.362Z,2.85
2022-12-23T14:57:00.351Z,2.80
2022-12-23T14:59:52.944Z,2.90
2022-12-23T15:02:36.636Z,2.40
2022-12-23T15:05:05.162Z,2.25
2022-12-23T15:07:43.791Z,2.55
2022-12-23T15:10:22.439Z,2.13
2022-12-23T15:13:02.806Z,2.15
2022-12-23T15:15:30.990Z,1.92
2022-12-23T15:18:12.533Z,2.33
2022-12-23T15:20:39.739Z,1.98
2022-12-23T15:23:15.993Z,1.83
2022-12-23T15:25:47.617Z,2.08
2022-12-23T15:28:22.818Z,1.52
2022-12-23T15:30:56.514Z,1.45
2022-12-23T15:36:35.713Z,1.52
2022-12-23T15:39:09.826Z,2.20
2022-12-23T15:41:46.050Z,1.58
2022-12-23T15:44:26.347Z,1.98
2022-12-23T15:46:53.657Z,1.80
2022-12-23T15:49:21.843Z,1.85
2022-12-23T15:52:09.904Z,1.80
2022-12-23T15:54:52.907Z,1.90
2022-12-23T15:57:23.409Z,2.22
2022-12-23T15:59:51.136Z,2.53
2022-12-23T16:05:32.185Z,2.17
2022-12-23T16:08:13.885Z,2.55
2022-12-23T16:10:42.429Z,2.45
2022-12-23T16:13:20.534Z,2.33
2022-12-23T16:15:47.834Z,2.35
2022-12-23T16:18:32.715Z,2.65
2022-12-23T16:21:03.819Z,3.22
2022-12-23T16:23:36.608Z,3.17
2022-12-23T16:26:04.619Z,3.72
2022-12-23T16:28:50.202Z,4.13
2022-12-23T16:31:19.928Z,4.88
2022-12-23T16:33:57.954Z,5.03
2022-12-23T16:36:27.769Z,4.82
2022-12-23T16:39:07.047Z,3.85
2022-12-23T16:41:35.224Z,3.45
2022-12-23T16:44:03.706Z,3.92
2022-12-23T17:33:00.361Z,3.55
2022-12-23T17:35:27.315Z,3.35
2022-12-23T17:37:54.281Z,3.65
2022-12-23T17:40:21.224Z,3.97
2022-12-23T17:42:48.442Z,3.78
2022-12-23T17:45:27.875Z,4.25
2022-12-23T17:47:54.924Z,4.03
2022-12-23T17:50:23.757Z,4.80
2022-12-23T17:52:52.288Z,5.53
2022-12-23T17:55:24.375Z,4.75
2022-12-23T17:57:51.877Z,4.53
2022-12-23T18:00:29.947Z,4.53
2022-12-23T18:03:00.892Z,5.32
2022-12-23T18:05:34.125Z,4.95
2022-12-23T18:08:02.936Z,5.40
2022-12-23T18:10:40.207Z,5.28
2022-12-23T18:13:16.994Z,4.85
2022-12-23T18:15:45.400Z,5.00
2022-12-23T18:18:26.879Z,4.57
2022-12-23T18:20:59.008Z,4.25
2022-12-23T18:23:31.592Z,4.10
2022-12-23T18:25:59.696Z,4.90
2022-12-23T18:28:27.204Z,4.50
2022-12-23T18:30:57.008Z,3.72
2022-12-23T18:33:28.507Z,4.03
2022-12-23T18:35:55.976Z,6.10
2022-12-23T18:38:23.011Z,4.50
2022-12-23T18:40:53.803Z,5.13
2022-12-23T18:43:24.136Z,5.88
2022-12-23T18:45:53.813Z,5.70
2022-12-23T18:48:21.603Z,5.38
2022-12-23T18:50:48.795Z,6.93
2022-12-23T18:53:24.297Z,7.88
2022-12-23T18:55:54.305Z,5.93
2022-12-23T18:58:22.471Z,6.32
2022-12-23T19:00:52.749Z,6.97
2022-12-23T19:03:22.097Z,5.90
2022-12-23T19:05:50.894Z,5.35
2022-12-23T19:08:25.560Z,6.10
2022-12-23T19:13:20.906Z,6.38
2022-12-23T19:15:47.852Z,6.07
2022-12-23T19:18:17.896Z,6.40
2022-12-23T19:20:46.820Z,5.65
2022-12-23T19:23:15.301Z,5.88
2022-12-23T19:25:52.578Z,6.63
2022-12-23T19:28:22.434Z,5.97
2022-12-23T19:30:49.705Z,6.20
2022-12-23T19:33:17.323Z,6.20
2022-12-23T19:35:45.049Z,6.95
2022-12-23T19:38:12.322Z,7.47
2022-12-23T19:40:40.038Z,6.93
2022-12-23T19:43:08.046Z,7.85
2022-12-23T19:45:35.020Z,7.18
2022-12-23T19:48:02.081Z,7.35
2022-12-23T19:50:29.146Z,7.78
2022-12-23T19:52:56.457Z,7.28
2022-12-23T19:55:23.760Z,6.75
2022-12-23T19:57:51.713Z,6.85
2022-12-23T20:00:18.750Z,6.22
2022-12-23T20:02:45.757Z,5.82
2022-12-23T20:05:12.931Z,5.75
2022-12-23T20:07:40.058Z,5.65
2022-12-23T20:10:08.006Z,4.82
2022-12-23T20:12:34.918Z,4.53
2022-12-23T20:15:01.943Z,4.70
2022-12-23T20:17:28.903Z,5.43
2022-12-23T20:19:55.900Z,4.60
2022-12-23T20:22:23.123Z,4.57
2022-12-23T20:24:51.058Z,5.18
2022-12-23T20:27:22.645Z,4.40
2022-12-23T20:29:53.095Z,5.45
2022-12-23T20:32:19.993Z,4.65
2022-12-23T20:34:49.039Z,6.40
2022-12-23T20:37:16.258Z,6.75
2022-12-23T20:39:43.327Z,7.65
2022-12-23T20:42:10.380Z,7.40
2022-12-23T20:44:37.787Z,8.55
2022-12-23T20:47:08.258Z,8.93
2022-12-23T20:49:35.204Z,7.93
2022-12-23T20:52:02.201Z,8.13
2022-12-23T20:54:33.353Z,8.05
2022-12-23T20:57:04.538Z,8.10
2022-12-23T20:59:33.087Z,7.57
2022-12-23T21:02:01.122Z,8.88
2022-12-23T21:04:28.329Z,7.55
2022-12-23T21:06:55.380Z,6.88
2022-12-23T21:09:22.378Z,6.10
2022-12-23T21:11:50.185Z,7.00
2022-12-23T21:14:17.344Z,6.05
2022-12-23T21:16:45.261Z,6.40
2022-12-23T21:19:20.770Z,6.38
2022-12-23T21:21:49.037Z,5.78
2022-12-23T21:24:17.060Z,6.13
2022-12-23T21:26:47.780Z,6.88
2022-12-23T21:29:19.248Z,6.47
2022-12-23T21:31:46.313Z,5.80
2022-12-23T21:34:16.489Z,5.43
2022-12-23T21:36:43.694Z,4.85
2022-12-23T21:39:16.135Z,5.32
2022-12-23T21:41:43.436Z,5.10
2022-12-23T21:44:13.679Z,4.72
2022-12-23T21:46:40.802Z,5.75
2022-12-23T21:49:07.726Z,5.22
2022-12-23T21:51:40.179Z,4.25
2022-12-23T21:54:10.098Z,5.53
2022-12-23T21:56:38.378Z,5.10
2022-12-23T21:59:12.194Z,4.88
2022-12-23T22:01:39.917Z,4.80
2022-12-23T22:04:06.915Z,5.30
2022-12-23T22:06:38.549Z,4.85
2022-12-23T22:09:07.560Z,5.18
2022-12-23T22:11:36.791Z,4.97
2022-12-23T22:14:08.095Z,4.75
2022-12-23T22:16:36.568Z,4.93
2022-12-23T22:19:05.783Z,4.22
2022-12-23T22:21:34.883Z,5.18
2022-12-23T22:24:03.109Z,4.25
2022-12-23T22:26:32.986Z,5.18
2022-12-23T22:29:04.520Z,4.75
2022-12-23T22:31:31.447Z,5.30
2022-12-23T22:33:58.833Z,4.45
2022-12-23T22:36:26.266Z,4.75
2022-12-23T22:38:56.905Z,4.35
2022-12-23T22:41:27.829Z,5.28
2022-12-23T22:43:55.440Z,4.88
2022-12-23T22:46:24.449Z,4.38
2022-12-23T22:48:53.235Z,5.32
2022-12-23T22:51:29.770Z,5.13
2022-12-23T22:53:57.929Z,4.80
2022-12-23T22:56:26.214Z,5.30
2022-12-23T22:58:54.386Z,5.57
2022-12-23T23:01:25.275Z,4.55
2022-12-23T23:03:57.305Z,2.78
2022-12-23T23:06:38.561Z,4.35
2022-12-23T23:09:09.363Z,2.08
2022-12-23T23:11:36.555Z,1.10
2022-12-23T23:14:04.567Z,1.00
2022-12-23T23:16:31.975Z,1.17
2022-12-23T23:19:00.469Z,1.42
2022-12-23T23:21:27.538Z,2.10
2022-12-23T23:23:54.557Z,0.60
2022-12-23T23:26:26.604Z,1.23
2022-12-23T23:28:57.486Z,1.00
2022-12-23T23:31:42.039Z,1.10
2022-12-23T23:34:09.712Z,3.78
2022-12-23T23:36:36.607Z,3.15
2022-12-23T23:39:03.866Z,2.88
2022-12-23T23:41:30.818Z,2.25
2022-12-23T23:44:00.164Z,2.33
2022-12-23T23:46:27.272Z,4.35
2022-12-23T23:48:54.246Z,2.45
2022-12-23T23:51:21.166Z,3.10
2022-12-23T23:53:48.046Z,3.92
2022-12-23T23:56:21.943Z,4.00
2022-12-23T23:58:51.961Z,4.75
